createdAt,value
2023-05-14T00:00:40.762Z,15.22
2023-05-14T00:03:07.393Z,15.19
2023-05-14T00:05:34.055Z,15.13
2023-05-14T00:08:00.943Z,15.03
2023-05-14T00:10:27.670Z,15.05
2023-05-14T00:12:54.540Z,14.95
2023-05-14T00:15:21.426Z,14.77
2023-05-14T00:17:48.169Z,15.06
2023-05-14T00:20:15.053Z,14.78
2023-05-14T00:22:41.649Z,14.94
2023-05-14T00:25:08.629Z,14.87
2023-05-14T00:27:36.025Z,14.59
2023-05-14T00:30:02.659Z,14.84
2023-05-14T00:32:29.157Z,14.86
2023-05-14T00:34:55.936Z,14.73
2023-05-14T00:37:22.425Z,14.65
2023-05-14T00:39:48.964Z,14.67
2023-05-14T00:42:15.625Z,14.57
2023-05-14T00:44:42.029Z,14.50
2023-05-14T00:47:09.036Z,14.63
2023-05-14T00:49:35.879Z,14.61
2023-05-14T00:52:02.517Z,14.41
2023-05-14T00:54:29.509Z,14.48
2023-05-14T00:56:56.089Z,14.42
2023-05-14T00:59:22.575Z,14.33
2023-05-14T01:01:49.185Z,14.30
2023-05-14T01:04:16.027Z,14.46
2023-05-14T01:06:47.958Z,14.49
2023-05-14T01:09:19.221Z,14.34
2023-05-14T01:11:51.748Z,14.30
2023-05-14T01:14:19.244Z,14.24
2023-05-14T01:16:46.189Z,14.26
2023-05-14T01:19:28.157Z,14.31
2023-05-14T01:21:54.596Z,14.19
2023-05-14T01:24:21.118Z,14.33
2023-05-14T01:26:48.048Z,14.16
2023-05-14T01:29:22.323Z,14.04
2023-05-14T01:31:49.970Z,14.19
2023-05-14T01:34:19.442Z,14.27
2023-05-14T01:36:47.345Z,14.25
2023-05-14T01:39:15.251Z,14.02
2023-05-14T01:41:42.284Z,14.08
2023-05-14T01:44:12.316Z,14.20
2023-05-14T01:46:39.050Z,14.04
2023-05-14T01:49:05.850Z,13.81
2023-05-14T01:51:32.464Z,14.04
2023-05-14T01:53:58.968Z,14.08
2023-05-14T01:56:25.894Z,13.90
2023-05-14T01:58:52.526Z,14.06
2023-05-14T02:01:19.118Z,13.86
2023-05-14T02:03:46.358Z,13.88
2023-05-14T02:06:12.947Z,13.68
2023-05-14T02:08:39.801Z,13.88
2023-05-14T02:11:06.253Z,13.77
2023-05-14T02:13:32.725Z,13.75
2023-05-14T02:15:59.238Z,14.04
2023-05-14T02:18:25.864Z,13.91
2023-05-14T02:20:53.403Z,13.74
2023-05-14T02:23:25.665Z,13.60
2023-05-14T02:25:57.731Z,13.61
2023-05-14T02:28:24.140Z,13.57
2023-05-14T02:30:50.669Z,13.61
2023-05-14T02:33:17.445Z,13.62
2023-05-14T02:35:44.328Z,13.51
2023-05-14T02:38:10.850Z,13.29
2023-05-14T02:40:37.490Z,13.53
2023-05-14T02:43:04.362Z,13.49
2023-05-14T02:45:30.733Z,13.31
2023-05-14T02:47:57.427Z,13.24
2023-05-14T02:50:24.043Z,13.26
2023-05-14T02:52:50.994Z,13.39
2023-05-14T02:55:17.428Z,13.37
2023-05-14T02:57:43.897Z,13.29
2023-05-14T03:00:10.819Z,13.22
2023-05-14T03:02:38.074Z,13.12
2023-05-14T03:05:05.182Z,13.17
2023-05-14T03:07:31.635Z,13.32
2023-05-14T03:10:00.332Z,13.10
2023-05-14T03:12:26.949Z,13.13
2023-05-14T03:14:53.422Z,13.22
2023-05-14T03:17:20.888Z,13.14
2023-05-14T03:19:47.344Z,13.14
2023-05-14T03:22:14.001Z,13.28
2023-05-14T03:24:41.121Z,13.30
2023-05-14T03:27:07.837Z,13.34
2023-05-14T03:29:34.428Z,13.12
2023-05-14T03:32:01.073Z,13.24
2023-05-14T03:34:27.604Z,13.17
2023-05-14T03:36:54.100Z,13.10
2023-05-14T03:39:21.235Z,13.11
2023-05-14T03:41:48.160Z,12.97
2023-05-14T03:44:14.721Z,12.96
2023-05-14T03:46:41.236Z,13.02
2023-05-14T03:49:08.507Z,13.19
2023-05-14T03:51:35.066Z,13.07
2023-05-14T03:54:01.716Z,13.16
2023-05-14T03:56:28.172Z,12.95
2023-05-14T03:58:54.835Z,12.96
2023-05-14T04:01:21.347Z,13.00
2023-05-14T04:03:47.894Z,13.00
2023-05-14T04:06:14.697Z,13.11
2023-05-14T04:08:41.125Z,13.03
2023-05-14T04:11:08.301Z,13.03
2023-05-14T04:13:34.794Z,13.05
2023-05-14T04:16:01.448Z,13.14
2023-05-14T04:18:28.052Z,13.03
2023-05-14T04:20:54.921Z,13.21
2023-05-14T04:23:23.993Z,13.24
2023-05-14T04:25:50.853Z,13.09
2023-05-14T04:28:17.411Z,13.10
2023-05-14T04:30:43.923Z,13.21
2023-05-14T04:33:10.419Z,13.27
2023-05-14T04:35:37.052Z,13.14
2023-05-14T04:38:03.721Z,13.25
2023-05-14T04:40:31.483Z,13.46
2023-05-14T04:42:57.946Z,13.38
2023-05-14T04:45:24.365Z,13.44
2023-05-14T04:47:51.364Z,13.43
2023-05-14T04:50:17.896Z,13.77
2023-05-14T04:52:45.499Z,13.84
2023-05-14T04:55:12.016Z,14.04
2023-05-14T04:57:38.405Z,14.12
2023-05-14T05:00:09.586Z,14.00
2023-05-14T05:02:36.204Z,14.00
2023-05-14T05:05:04.117Z,14.29
2023-05-14T05:07:30.884Z,14.27
2023-05-14T05:09:57.408Z,14.09
2023-05-14T05:12:23.900Z,14.32
2023-05-14T05:14:50.388Z,14.33
2023-05-14T05:17:17.135Z,14.18
2023-05-14T05:19:44.509Z,14.40
2023-05-14T05:22:11.514Z,14.38
2023-05-14T05:24:38.028Z,14.40
2023-05-14T05:27:05.584Z,14.58
2023-05-14T05:29:32.199Z,14.69
2023-05-14T05:31:59.358Z,14.89
2023-05-14T05:34:25.945Z,14.73
2023-05-14T05:36:52.431Z,14.77
2023-05-14T05:39:19.373Z,14.79
2023-05-14T05:41:45.885Z,15.22
2023-05-14T05:44:12.338Z,15.31
2023-05-14T05:46:39.010Z,15.58
2023-05-14T05:49:05.897Z,15.85
2023-05-14T05:51:33.150Z,15.78
2023-05-14T05:53:59.978Z,15.85
2023-05-14T05:56:26.514Z,16.64
2023-05-14T05:58:53.362Z,17.14
2023-05-14T06:01:20.207Z,17.54
2023-05-14T06:03:48.382Z,17.18
2023-05-14T06:06:15.561Z,17.07
2023-05-14T06:08:42.179Z,16.56
2023-05-14T06:11:08.909Z,16.51
2023-05-14T06:13:35.340Z,16.65
2023-05-14T06:16:01.902Z,16.41
2023-05-14T06:18:28.638Z,16.79
2023-05-14T06:20:56.638Z,16.50
2023-05-14T06:23:23.331Z,16.68
2023-05-14T06:25:50.754Z,16.85
2023-05-14T06:28:17.666Z,17.54
2023-05-14T06:30:44.126Z,17.84
2023-05-14T06:33:12.849Z,18.14
2023-05-14T06:35:39.646Z,19.24
2023-05-14T06:38:06.147Z,19.72
2023-05-14T06:40:32.615Z,20.47
2023-05-14T06:42:59.079Z,20.12
2023-05-14T06:45:25.615Z,20.09
2023-05-14T06:47:52.324Z,21.54
2023-05-14T06:50:19.348Z,20.80
2023-05-14T06:52:46.781Z,20.19
2023-05-14T06:55:13.330Z,20.28
2023-05-14T06:57:40.787Z,21.67
2023-05-14T07:00:09.564Z,22.25
2023-05-14T07:02:36.252Z,21.06
2023-05-14T07:05:03.426Z,22.18
2023-05-14T07:07:29.948Z,21.63
2023-05-14T07:09:56.363Z,21.07
2023-05-14T07:12:22.813Z,22.33
2023-05-14T07:14:50.255Z,21.90
2023-05-14T07:17:16.866Z,22.52
2023-05-14T07:19:43.441Z,22.75
2023-05-14T07:22:09.972Z,22.86
2023-05-14T07:24:36.506Z,22.68
2023-05-14T07:27:03.093Z,23.94
2023-05-14T07:29:30.343Z,23.72
2023-05-14T07:31:56.848Z,24.43
2023-05-14T07:34:23.310Z,24.84
2023-05-14T07:36:49.924Z,24.89
2023-05-14T07:39:16.389Z,25.22
2023-05-14T07:41:42.848Z,24.76
2023-05-14T07:44:09.816Z,25.70
2023-05-14T07:46:36.646Z,23.97
2023-05-14T07:49:03.252Z,25.49
2023-05-14T07:51:30.315Z,24.34
2023-05-14T07:53:56.845Z,23.76
2023-05-14T07:56:23.681Z,23.95
2023-05-14T07:58:50.598Z,24.77
2023-05-14T08:01:17.480Z,23.58
2023-05-14T08:03:44.453Z,25.10
2023-05-14T08:06:11.747Z,23.75
2023-05-14T08:08:38.301Z,25.17
2023-05-14T08:11:04.841Z,26.25
2023-05-14T08:13:31.393Z,25.47
2023-05-14T08:15:57.969Z,26.26
2023-05-14T08:18:24.740Z,26.07
2023-05-14T08:20:51.762Z,26.04
2023-05-14T08:23:18.255Z,26.44
2023-05-14T08:25:44.882Z,27.34
2023-05-14T08:28:11.317Z,26.85
2023-05-14T08:30:37.829Z,26.87
2023-05-14T08:33:05.023Z,26.83
2023-05-14T08:35:31.545Z,27.83
2023-05-14T08:37:58.021Z,26.79
2023-05-14T08:40:24.707Z,26.50
2023-05-14T08:42:51.646Z,26.91
2023-05-14T08:45:19.075Z,26.66
2023-05-14T08:47:48.248Z,25.49
2023-05-14T08:50:15.280Z,25.94
2023-05-14T08:52:42.156Z,26.47
2023-05-14T08:55:09.866Z,24.65
2023-05-14T08:57:36.391Z,24.11
2023-05-14T09:00:08.539Z,23.22
2023-05-14T09:02:35.420Z,23.32
2023-05-14T09:05:02.700Z,23.16
2023-05-14T09:07:29.369Z,22.66
2023-05-14T09:09:55.932Z,22.57
2023-05-14T09:12:22.595Z,22.10
2023-05-14T09:14:49.778Z,22.10
2023-05-14T09:17:16.649Z,22.13
2023-05-14T09:19:43.981Z,21.74
2023-05-14T09:22:14.141Z,22.07
2023-05-14T09:24:40.936Z,22.30
2023-05-14T09:27:08.078Z,22.13
2023-05-14T09:29:34.875Z,22.09
2023-05-14T09:32:05.882Z,22.09
2023-05-14T09:34:34.042Z,22.03
2023-05-14T09:37:01.733Z,22.38
2023-05-14T09:39:28.807Z,22.31
2023-05-14T09:41:56.145Z,21.96
2023-05-14T09:44:23.375Z,21.72
2023-05-14T09:46:51.111Z,21.22
2023-05-14T09:49:17.724Z,20.73
2023-05-14T09:51:47.061Z,21.40
2023-05-14T09:54:13.553Z,21.47
2023-05-14T09:56:40.347Z,22.18
2023-05-14T09:59:07.107Z,23.40
2023-05-14T10:01:33.923Z,24.59
2023-05-14T10:04:01.672Z,24.62
2023-05-14T10:06:30.562Z,24.27
2023-05-14T10:09:01.330Z,22.83
2023-05-14T10:11:30.969Z,22.67
2023-05-14T10:14:07.782Z,22.18
2023-05-14T10:16:36.531Z,22.87
2023-05-14T10:19:08.506Z,22.49
2023-05-14T10:21:36.646Z,22.18
2023-05-14T10:24:04.930Z,22.14
2023-05-14T10:26:39.056Z,22.78
2023-05-14T10:29:06.251Z,22.93
2023-05-14T10:31:47.920Z,23.93
2023-05-14T10:34:40.950Z,23.97
2023-05-14T10:37:11.639Z,24.42
2023-05-14T10:39:41.538Z,23.14
2023-05-14T10:42:31.237Z,23.38
2023-05-14T10:45:01.853Z,26.41
2023-05-14T10:47:29.200Z,26.16
2023-05-14T10:49:56.419Z,25.93
2023-05-14T10:52:23.544Z,26.55
2023-05-14T10:54:53.019Z,25.97
2023-05-14T10:57:20.174Z,24.10
2023-05-14T10:59:47.402Z,23.02
2023-05-14T11:02:31.041Z,23.51
2023-05-14T11:05:04.463Z,23.32
2023-05-14T11:07:35.074Z,22.13
2023-05-14T11:10:05.915Z,21.99
2023-05-14T11:12:33.435Z,22.25
2023-05-14T11:15:02.153Z,22.54
2023-05-14T11:17:29.184Z,22.67
2023-05-14T11:19:55.970Z,22.81
2023-05-14T11:22:22.565Z,23.03
2023-05-14T11:24:49.658Z,23.44
2023-05-14T11:27:17.137Z,23.10
2023-05-14T11:29:47.209Z,23.09
2023-05-14T11:32:14.642Z,23.73
2023-05-14T11:34:41.785Z,23.91
2023-05-14T11:37:09.160Z,23.87
2023-05-14T11:39:37.437Z,24.00
2023-05-14T11:42:12.421Z,24.05
2023-05-14T11:44:38.910Z,23.65
2023-05-14T11:47:06.437Z,23.83
2023-05-14T11:49:32.974Z,23.55
2023-05-14T11:52:00.120Z,23.34
2023-05-14T11:54:27.532Z,23.44
2023-05-14T11:56:54.874Z,24.62
2023-05-14T11:59:21.703Z,25.00
2023-05-14T12:01:50.610Z,25.24
2023-05-14T12:04:18.961Z,24.69
2023-05-14T12:06:46.825Z,25.03
2023-05-14T12:09:16.223Z,23.70
2023-05-14T12:11:43.044Z,24.43
2023-05-14T12:14:15.066Z,23.86
2023-05-14T12:16:42.463Z,24.20
2023-05-14T12:19:10.785Z,25.50
2023-05-14T12:21:37.800Z,24.97
2023-05-14T12:24:04.366Z,24.60
2023-05-14T12:26:34.245Z,24.73
2023-05-14T12:29:01.421Z,24.57
2023-05-14T12:31:29.141Z,24.10
2023-05-14T12:33:56.035Z,24.43
2023-05-14T12:36:22.674Z,25.69
2023-05-14T12:38:58.412Z,24.91
2023-05-14T12:41:25.118Z,25.40
2023-05-14T12:43:51.564Z,25.80
2023-05-14T12:46:20.738Z,25.68
2023-05-14T12:48:47.314Z,25.85
2023-05-14T12:51:13.896Z,25.68
2023-05-14T12:53:40.688Z,26.29
2023-05-14T12:56:07.309Z,27.18
2023-05-14T12:58:33.888Z,26.07
2023-05-14T13:01:00.731Z,26.66
2023-05-14T13:03:27.345Z,28.12
2023-05-14T13:05:54.523Z,29.36
2023-05-14T13:08:26.877Z,27.24
2023-05-14T13:10:54.284Z,27.63
2023-05-14T13:13:20.851Z,26.21
2023-05-14T13:15:47.487Z,28.31
2023-05-14T13:18:15.206Z,29.86
2023-05-14T13:20:43.320Z,30.86
2023-05-14T13:23:09.948Z,29.28
2023-05-14T13:25:36.608Z,30.58
2023-05-14T13:28:03.163Z,31.45
2023-05-14T13:30:30.100Z,30.30
2023-05-14T13:38:07.881Z,24.49
2023-05-14T13:40:34.401Z,23.94
2023-05-14T13:43:01.002Z,23.95
2023-05-14T13:45:27.703Z,24.06
2023-05-14T13:47:56.576Z,23.99
2023-05-14T13:50:23.202Z,24.08
2023-05-14T13:52:49.705Z,24.12
2023-05-14T13:55:17.111Z,24.25
2023-05-14T13:57:44.142Z,24.71
2023-05-14T14:00:11.570Z,24.40
2023-05-14T14:02:38.167Z,24.68
2023-05-14T14:05:05.554Z,24.76
2023-05-14T14:07:32.139Z,24.25
2023-05-14T14:10:01.375Z,24.24
2023-05-14T14:12:28.019Z,24.15
2023-05-14T14:14:54.942Z,24.23
2023-05-14T14:17:21.672Z,24.81
2023-05-14T14:19:48.258Z,24.37
2023-05-14T14:22:17.347Z,24.74
2023-05-14T14:24:43.947Z,24.65
2023-05-14T14:27:10.803Z,24.10
2023-05-14T14:29:37.416Z,23.82
2023-05-14T14:32:04.674Z,24.35
2023-05-14T14:34:31.332Z,24.96
2023-05-14T14:36:58.558Z,25.24
2023-05-14T14:39:25.436Z,24.95
2023-05-14T14:41:52.101Z,24.75
2023-05-14T14:44:18.673Z,25.05
2023-05-14T14:46:45.411Z,25.17
2023-05-14T14:49:11.905Z,24.91
2023-05-14T14:51:38.527Z,24.43
2023-05-14T14:54:05.425Z,25.01
2023-05-14T14:56:32.387Z,24.84
2023-05-14T14:58:58.951Z,24.90
2023-05-14T15:01:25.749Z,24.37
2023-05-14T15:03:52.546Z,25.05
2023-05-14T15:06:19.076Z,25.12
2023-05-14T15:08:45.559Z,24.34
2023-05-14T15:11:12.174Z,24.16
2023-05-14T15:13:40.054Z,23.71
2023-05-14T15:16:07.185Z,23.18
2023-05-14T15:18:33.788Z,23.87
2023-05-14T15:21:00.469Z,24.99
2023-05-14T15:23:27.103Z,25.20
2023-05-14T15:25:53.652Z,24.07
2023-05-14T15:28:20.392Z,23.91
2023-05-14T15:30:50.071Z,24.58
2023-05-14T15:33:19.135Z,23.85
2023-05-14T15:35:46.089Z,22.74
2023-05-14T15:38:12.717Z,22.36
2023-05-14T15:40:40.624Z,22.08
2023-05-14T15:43:08.240Z,21.83
2023-05-14T15:45:35.039Z,21.87
2023-05-14T15:48:01.649Z,21.83
2023-05-14T15:50:28.329Z,20.98
2023-05-14T15:52:55.009Z,20.26
2023-05-14T15:55:24.324Z,19.65
2023-05-14T15:57:50.946Z,19.41
2023-05-14T16:00:17.832Z,19.54
2023-05-14T16:02:44.814Z,19.69
2023-05-14T16:05:11.412Z,19.88
2023-05-14T16:07:38.309Z,19.34
2023-05-14T16:10:06.250Z,19.64
2023-05-14T16:12:32.866Z,20.05
2023-05-14T16:15:00.077Z,20.35
2023-05-14T16:17:28.107Z,20.14
2023-05-14T16:19:56.280Z,19.95
2023-05-14T16:22:23.647Z,19.94
2023-05-14T16:24:50.314Z,20.27
2023-05-14T16:27:18.973Z,20.39
2023-05-14T16:29:45.634Z,20.88
2023-05-14T16:32:12.283Z,20.64
2023-05-14T16:34:38.937Z,20.59
2023-05-14T16:37:05.485Z,20.62
2023-05-14T16:39:32.170Z,20.94
2023-05-14T16:42:01.666Z,20.57
2023-05-14T16:44:28.348Z,20.99
2023-05-14T16:46:55.030Z,20.52
2023-05-14T16:49:22.582Z,20.67
2023-05-14T16:51:49.309Z,20.68
2023-05-14T16:54:15.993Z,20.83
2023-05-14T16:56:42.810Z,21.34
2023-05-14T16:59:09.825Z,21.24
2023-05-14T17:01:36.922Z,21.23
2023-05-14T17:04:03.571Z,21.17
2023-05-14T17:06:30.972Z,21.11
2023-05-14T17:08:57.494Z,21.24
2023-05-14T17:11:24.054Z,21.36
2023-05-14T17:13:50.844Z,21.30
2023-05-14T17:16:18.337Z,21.35
2023-05-14T17:18:46.096Z,21.22
2023-05-14T17:21:12.770Z,21.13
2023-05-14T17:23:39.659Z,21.06
2023-05-14T17:26:06.548Z,20.92
2023-05-14T17:28:33.465Z,20.85
2023-05-14T17:31:00.267Z,20.68
2023-05-14T17:33:27.061Z,20.85
2023-05-14T17:35:53.733Z,20.38
2023-05-14T17:38:20.358Z,20.38
2023-05-14T17:40:46.927Z,20.34
2023-05-14T17:43:13.604Z,19.93
2023-05-14T17:45:53.227Z,20.29
2023-05-14T17:48:22.278Z,19.88
2023-05-14T17:50:49.064Z,19.77
2023-05-14T17:53:15.631Z,19.74
2023-05-14T17:55:43.684Z,19.78
2023-05-14T17:58:15.249Z,19.77
2023-05-14T18:00:43.518Z,19.64
2023-05-14T18:03:10.675Z,19.53
2023-05-14T18:05:37.449Z,19.84
2023-05-14T18:08:04.398Z,19.73
2023-05-14T18:10:31.072Z,19.77
2023-05-14T18:12:58.000Z,19.46
2023-05-14T18:15:25.818Z,19.42
2023-05-14T18:17:52.817Z,19.44
2023-05-14T18:20:19.808Z,19.46
2023-05-14T18:22:46.499Z,19.42
2023-05-14T18:25:14.698Z,19.20
2023-05-14T18:27:45.025Z,19.13
2023-05-14T18:30:13.770Z,18.98
2023-05-14T18:32:42.339Z,18.82
2023-05-14T18:35:10.646Z,18.91
2023-05-14T18:37:37.303Z,18.90
2023-05-14T18:40:10.618Z,18.90
2023-05-14T18:42:37.211Z,19.06
2023-05-14T18:45:04.541Z,18.86
2023-05-14T18:47:33.119Z,18.84
2023-05-14T18:50:01.871Z,18.71
2023-05-14T18:52:29.120Z,18.68
2023-05-14T18:54:55.701Z,18.45
2023-05-14T18:57:22.496Z,18.45
2023-05-14T18:59:49.106Z,18.47
2023-05-14T19:02:16.193Z,18.56
2023-05-14T19:04:51.721Z,18.55
2023-05-14T19:07:23.013Z,18.39
2023-05-14T19:09:49.614Z,18.48
2023-05-14T19:12:16.583Z,18.37
2023-05-14T19:14:43.376Z,18.36
2023-05-14T19:17:10.225Z,18.26
2023-05-14T19:19:37.868Z,18.31
2023-05-14T19:22:04.758Z,17.92
2023-05-14T19:24:31.408Z,18.24
2023-05-14T19:26:58.103Z,18.25
2023-05-14T19:29:24.964Z,18.12
2023-05-14T19:31:51.839Z,18.18
2023-05-14T19:34:18.418Z,18.22
2023-05-14T19:36:45.170Z,18.21
2023-05-14T19:39:11.821Z,18.26
2023-05-14T19:41:38.573Z,18.16
2023-05-14T19:44:05.491Z,18.19
2023-05-14T19:46:32.368Z,18.08
2023-05-14T19:48:59.117Z,18.17
2023-05-14T19:51:25.651Z,18.26
2023-05-14T19:53:52.253Z,18.15
2023-05-14T19:56:18.864Z,18.07
2023-05-14T19:58:45.368Z,18.06
2023-05-14T20:01:12.346Z,17.97
2023-05-14T20:03:39.193Z,18.01
2023-05-14T20:06:07.090Z,17.96
2023-05-14T20:08:33.923Z,17.98
2023-05-14T20:11:00.608Z,18.10
2023-05-14T20:13:27.540Z,18.11
2023-05-14T20:15:55.389Z,17.94
2023-05-14T20:18:22.196Z,18.14
2023-05-14T20:20:49.050Z,17.90
2023-05-14T20:23:15.856Z,17.83
2023-05-14T20:25:43.079Z,17.95
2023-05-14T20:28:10.302Z,17.88
2023-05-14T20:30:40.699Z,17.84
2023-05-14T20:33:08.166Z,17.78
2023-05-14T20:35:34.825Z,18.01
2023-05-14T20:38:02.195Z,18.03
2023-05-14T20:40:29.934Z,17.93
2023-05-14T20:42:56.831Z,17.98
2023-05-14T20:45:23.795Z,17.94
2023-05-14T20:47:50.849Z,18.07
2023-05-14T20:50:17.663Z,17.91
2023-05-14T20:52:44.232Z,17.73
2023-05-14T20:55:11.000Z,17.90
2023-05-14T20:57:37.597Z,17.83
2023-05-14T21:00:08.099Z,17.75
2023-05-14T21:02:34.969Z,17.80
2023-05-14T21:05:01.858Z,17.59
2023-05-14T21:07:29.034Z,17.60
2023-05-14T21:09:55.607Z,17.81
2023-05-14T21:12:22.690Z,17.73
2023-05-14T21:14:49.216Z,17.81
2023-05-14T21:17:15.838Z,17.74
2023-05-14T21:19:42.383Z,17.66
2023-05-14T21:22:09.194Z,17.62
2023-05-14T21:24:35.784Z,17.60
2023-05-14T21:27:02.427Z,17.45
2023-05-14T21:29:29.009Z,17.38
2023-05-14T21:31:56.054Z,17.26
2023-05-14T21:34:22.661Z,17.19
2023-05-14T21:36:49.257Z,17.20
2023-05-14T21:39:15.947Z,17.08
2023-05-14T21:41:42.451Z,16.97
2023-05-14T21:44:09.053Z,16.90
2023-05-14T21:46:36.106Z,16.92
2023-05-14T21:49:03.330Z,16.73
2023-05-14T21:51:30.005Z,16.68
2023-05-14T21:53:56.807Z,16.68
2023-05-14T21:56:23.980Z,16.61
2023-05-14T21:58:50.744Z,16.51
2023-05-14T22:01:17.297Z,16.50
2023-05-14T22:03:44.295Z,16.47
2023-05-14T22:06:11.503Z,16.46
2023-05-14T22:08:38.138Z,16.36
2023-05-14T22:11:04.827Z,16.27
2023-05-14T22:13:31.454Z,16.34
2023-05-14T22:16:09.254Z,16.31
2023-05-14T22:18:39.252Z,16.31
2023-05-14T22:21:06.132Z,16.32
2023-05-14T22:23:33.027Z,16.00
2023-05-14T22:25:59.861Z,16.05
2023-05-14T22:28:26.401Z,16.02
2023-05-14T22:30:52.917Z,15.90
2023-05-14T22:33:19.501Z,16.00
2023-05-14T22:35:46.129Z,16.01
2023-05-14T22:38:13.911Z,16.02
2023-05-14T22:40:40.512Z,15.70
2023-05-14T22:43:07.449Z,15.78
2023-05-14T22:45:34.165Z,15.81
2023-05-14T22:48:00.728Z,15.72
2023-05-14T22:50:27.280Z,15.67
2023-05-14T22:52:53.875Z,15.69
2023-05-14T22:55:20.390Z,15.62
2023-05-14T22:57:46.946Z,15.63
2023-05-14T23:00:14.110Z,15.61
2023-05-14T23:02:40.928Z,15.49
2023-05-14T23:05:10.554Z,15.73
2023-05-14T23:07:37.686Z,15.73
2023-05-14T23:10:04.754Z,15.74
2023-05-14T23:12:31.652Z,15.74
2023-05-14T23:14:59.188Z,15.78
2023-05-14T23:17:26.053Z,15.79
2023-05-14T23:19:52.958Z,15.68
2023-05-14T23:22:20.670Z,15.54
2023-05-14T23:24:47.226Z,15.45
2023-05-14T23:27:14.090Z,15.48
2023-05-14T23:29:40.932Z,15.39
2023-05-14T23:32:08.444Z,15.21
2023-05-14T23:34:35.413Z,15.21
2023-05-14T23:37:02.341Z,15.21
2023-05-14T23:39:28.921Z,15.09
2023-05-14T23:41:55.839Z,15.24
2023-05-14T23:44:22.596Z,15.17
2023-05-14T23:46:49.370Z,15.05
2023-05-14T23:49:16.211Z,14.86
2023-05-14T23:51:42.897Z,15.05
2023-05-14T23:54:09.501Z,15.02
2023-05-14T23:56:36.051Z,15.00
2023-05-14T23:59:03.570Z,15.04
